This is the latest recevied weather packets stored in our database for station/object TA5KA. If no packets are shown the sender has not sent any weather packets the latest 10 day(s).
| Time | Temp. | Humidity | Pressure | Rain* | Wind** | Luminosity | Snow |
|---|---|---|---|---|---|---|---|
| 1788164401 | 22.78° C | 47% | 1013 hPa | 0 mm | - | - | - |
| 1788164399 | 22.78° C | 47% | 1013 hPa | 0 mm | - | - | - |
| 1788163807 | 22.78° C | 47% | 1013 hPa | 0 mm | - | - | - |
| 1788163196 | 21.67° C | 51% | 1014 hPa | 0 mm | - | - | - |
| 1788162595 | 21.67° C | 51% | 1014 hPa | 0 mm | - | - | - |
| 1788161993 | 20.56° C | 53% | 1014 hPa | 0 mm | - | - | - |
| 1788161392 | 20.56° C | 53% | 1014 hPa | 0 mm | - | - | - |
| 1788160791 | 20.56° C | 53% | 1014 hPa | 0 mm | - | - | - |
| 1788160190 | 20.56° C | 53% | 1014 hPa | 0 mm | - | - | - |
| 1788159588 | 19.44° C | 60% | 1014 hPa | 0 mm | - | - | - |
| 1788158987 | 19.44° C | 60% | 1014 hPa | 0 mm | - | - | - |
| 1788158386 | 19.44° C | 60% | 1014 hPa | 0 mm | - | - | - |
| 1788157785 | 19.44° C | 60% | 1014 hPa | 0 mm | - | - | - |
| 1788157183 | 19.44° C | 60% | 1014 hPa | 0 mm | - | - | - |
| 1788156582 | 19.44° C | 60% | 1014 hPa | 0 mm | - | - | - |
| 1788155980 | 17.78° C | 68% | 1014 hPa | 0 mm | - | - | - |
| 1788155379 | 17.78° C | 68% | 1014 hPa | 0 mm | - | - | - |
| 1788154778 | 17.78° C | 68% | 1014 hPa | 0 mm | - | - | - |
| 1788154176 | 17.78° C | 68% | 1014 hPa | 0 mm | - | - | - |
| 1788153575 | 17.78° C | 68% | 1014 hPa | 0 mm | - | - | - |
| 1788152974 | 17.78° C | 68% | 1014 hPa | 0 mm | - | - | - |
| 1788152372 | 16.11° C | 78% | 1014 hPa | 0 mm | - | - | - |
| 1788151771 | 16.11° C | 78% | 1014 hPa | 0 mm | - | - | - |
| 1788151170 | 16.11° C | 78% | 1014 hPa | 0 mm | - | - | - |
| 1788150569 | 16.11° C | 78% | 1014 hPa | 0 mm | - | - | - |
* Rain latest hour (hover to see other rain measurements)
** Current wind speed in m/s (hover to see current wind gust speed)